Time;durP1;ratioP1;P1;durP2;ratioP2;P2;SDS_P1;SDS_P2;PMS_P1;PMS_P2;Temp;Humidity;BMP_temperature;BMP_pressure;BME280_temperature;BME280_humidity;BME280_pressure;Samples;Min_cycle;Max_cycle;Signal;HPM_P1;HPM_P2
2022/01/05 00:02:00;;;;;;;24.23;4.10;;;;;;;2.09;100.00;99963.31;5052330;28;20421;-73
2022/01/05 00:04:25;;;;;;;24.98;4.15;;;;;;;2.08;100.00;99966.75;5052528;28;20471;-72
2022/01/05 00:06:51;;;;;;;23.88;4.40;;;;;;;2.06;100.00;99965.84;5052797;28;20032;-73
2022/01/05 00:09:16;;;;;;;25.17;4.47;;;;;;;2.00;100.00;99978.75;5052014;28;20021;-72
2022/01/05 00:11:42;;;;;;;21.83;4.15;;;;;;;1.96;100.00;99961.25;5052679;28;20372;-73
2022/01/05 00:14:07;;;;;;;23.33;4.45;;;;;;;2.06;100.00;99971.94;5052210;28;20490;-73
2022/01/05 00:16:32;;;;;;;23.08;4.38;;;;;;;1.98;100.00;99970.00;5052094;28;20060;-72
2022/01/05 00:18:58;;;;;;;23.83;4.50;;;;;;;1.94;100.00;99973.34;5052028;28;20036;-72
2022/01/05 00:21:23;;;;;;;24.88;4.35;;;;;;;1.85;100.00;99977.50;5008097;28;1070454;-72
2022/01/05 00:23:49;;;;;;;23.17;4.07;;;;;;;1.76;100.00;99974.66;5051566;28;20037;-73
2022/01/05 00:26:14;;;;;;;23.50;4.57;;;;;;;1.71;100.00;99978.88;5052704;28;20021;-72
2022/01/05 00:28:39;;;;;;;26.80;4.70;;;;;;;1.55;100.00;99967.16;5051358;28;20033;-71
2022/01/05 00:31:05;;;;;;;24.15;4.15;;;;;;;1.47;100.00;99973.88;5052931;28;20033;-71
2022/01/05 00:33:30;;;;;;;22.10;4.13;;;;;;;1.39;100.00;99977.16;5052649;28;20418;-71
2022/01/05 00:35:55;;;;;;;23.92;4.28;;;;;;;1.31;100.00;99973.47;5052864;28;20490;-71
2022/01/05 00:38:21;;;;;;;21.27;4.32;;;;;;;1.26;100.00;99977.66;5052721;28;20078;-71
2022/01/05 00:40:46;;;;;;;24.92;4.70;;;;;;;1.19;100.00;99979.22;5052470;28;20104;-71
2022/01/05 00:43:12;;;;;;;21.98;4.32;;;;;;;1.17;100.00;99982.63;5052512;28;20025;-71
2022/01/05 00:45:37;;;;;;;24.08;4.50;;;;;;;1.32;100.00;99982.16;5052491;28;20078;-71
2022/01/05 00:48:02;;;;;;;24.55;4.68;;;;;;;1.18;100.00;99986.97;5051906;28;20025;-71
2022/01/05 00:50:28;;;;;;;24.50;4.78;;;;;;;1.13;100.00;99985.97;5052740;28;20025;-71
2022/01/05 00:52:59;;;;;;;22.50;4.60;;;;;;;1.04;100.00;99992.66;5052673;28;20383;-71
2022/01/05 00:55:25;;;;;;;26.90;4.90;;;;;;;1.01;100.00;99992.56;5052260;28;20522;-71
2022/01/05 00:57:52;;;;;;;22.95;4.80;;;;;;;0.99;100.00;100011.56;5052285;28;20064;-71
2022/01/05 01:00:17;;;;;;;24.88;5.13;;;;;;;0.93;100.00;100007.06;5052771;28;20083;-71
2022/01/05 01:02:42;;;;;;;23.80;5.22;;;;;;;0.91;100.00;100018.28;5050999;28;20067;-71
2022/01/05 01:05:08;;;;;;;25.00;5.32;;;;;;;0.81;100.00;100004.13;5052611;28;20028;-72
2022/01/05 01:07:33;;;;;;;24.10;5.50;;;;;;;0.75;100.00;100009.13;5052458;28;20475;-71
2022/01/05 01:09:59;;;;;;;22.63;5.38;;;;;;;0.71;100.00;100004.66;5052235;28;20020;-71
2022/01/05 01:12:24;;;;;;;24.77;5.15;;;;;;;0.64;100.00;100003.59;5052591;28;20047;-71
2022/01/05 01:14:49;;;;;;;23.15;5.70;;;;;;;0.58;100.00;100017.28;5052320;28;20067;-70
2022/01/05 01:17:15;;;;;;;25.63;6.05;;;;;;;0.57;100.00;100015.53;5052308;28;20057;-71
2022/01/05 01:19:40;;;;;;;25.15;5.68;;;;;;;0.67;100.00;100012.38;5052309;28;20025;-71
2022/01/05 01:22:05;;;;;;;22.88;5.43;;;;;;;0.63;100.00;100026.13;5052108;28;20087;-71
2022/01/05 01:24:31;;;;;;;25.20;5.90;;;;;;;0.60;100.00;100026.03;5052062;28;20025;-71
2022/01/05 01:26:56;;;;;;;23.63;5.60;;;;;;;0.58;100.00;100016.41;5052539;28;20083;-73
2022/01/05 01:29:21;;;;;;;28.27;5.72;;;;;;;0.56;100.00;100018.97;5052151;28;20472;-72
2022/01/05 01:31:47;;;;;;;25.55;5.88;;;;;;;0.57;100.00;100019.84;5052003;28;20032;-73
2022/01/05 01:34:13;;;;;;;27.60;6.00;;;;;;;0.57;100.00;100025.94;5052317;28;20024;-72
2022/01/05 01:36:38;;;;;;;23.65;5.60;;;;;;;0.50;100.00;100026.56;5052115;28;20367;-73
2022/01/05 01:39:05;;;;;;;24.27;5.60;;;;;;;0.47;100.00;100024.75;5051979;28;20032;-73
2022/01/05 01:41:30;;;;;;;24.55;5.55;;;;;;;0.42;100.00;100028.03;5052155;28;20360;-72
2022/01/05 01:43:55;;;;;;;23.90;6.00;;;;;;;0.35;100.00;100019.16;5051911;28;20028;-73
2022/01/05 01:46:21;;;;;;;23.65;5.55;;;;;;;0.31;100.00;100025.09;5050862;28;20025;-72
2022/01/05 01:48:46;;;;;;;26.33;5.82;;;;;;;0.29;100.00;100024.16;5052163;28;20029;-72
2022/01/05 01:51:14;;;;;;;25.17;5.47;;;;;;;0.31;100.00;100027.69;5051880;28;20028;-72
2022/01/05 01:53:39;;;;;;;25.83;5.65;;;;;;;0.28;100.00;100014.59;5046466;28;20080;-73
2022/01/05 01:56:06;;;;;;;25.67;5.38;;;;;;;0.32;100.00;100024.25;5051811;28;20479;-73
2022/01/05 01:58:34;;;;;;;27.45;5.85;;;;;;;0.36;100.00;100027.84;5053885;28;20040;-72
2022/01/05 02:00:59;;;;;;;23.38;4.90;;;;;;;0.37;100.00;100024.41;5055716;28;20039;-71
2022/01/05 02:03:25;;;;;;;25.33;5.43;;;;;;;0.42;100.00;100030.63;5055333;28;20113;-71
2022/01/05 02:05:50;;;;;;;23.95;4.90;;;;;;;0.50;100.00;100035.25;5055410;28;20103;-71
2022/01/05 02:08:15;;;;;;;24.35;5.15;;;;;;;0.42;100.00;100030.63;5055471;28;20031;-71
2022/01/05 02:10:43;;;;;;;23.73;5.10;;;;;;;0.43;100.00;100032.41;5055200;28;20029;-70
2022/01/05 02:13:08;;;;;;;24.70;5.13;;;;;;;0.33;100.00;100026.03;5055022;28;20041;-71
2022/01/05 02:15:34;;;;;;;22.45;4.93;;;;;;;0.31;100.00;100028.56;5048305;28;20069;-70
2022/01/05 02:20:29;;;;;;;28.02;5.28;;;;;;;0.30;100.00;100029.41;5051497;28;20033;-71
2022/01/05 02:22:56;;;;;;;23.65;4.40;;;;;;;0.42;100.00;100028.91;5050962;28;20047;-71
2022/01/05 02:25:23;;;;;;;24.00;4.90;;;;;;;0.33;100.00;100021.69;5054984;28;20033;-71
2022/01/05 02:27:52;;;;;;;23.60;4.70;;;;;;;0.28;100.00;100038.88;5054979;28;20033;-71
2022/01/05 02:30:30;;;;;;;22.38;4.47;;;;;;;0.22;100.00;100038.69;5055027;28;20021;-70
2022/01/05 02:32:56;;;;;;;26.63;5.43;;;;;;;0.22;100.00;100038.69;5051263;28;20040;-70
2022/01/05 02:35:21;;;;;;;25.75;4.80;;;;;;;0.24;100.00;100036.13;5054865;28;20025;-71
2022/01/05 02:37:51;;;;;;;24.98;4.82;;;;;;;0.18;100.00;100044.59;5054570;28;20048;-71
2022/01/05 02:40:18;;;;;;;25.50;4.65;;;;;;;0.14;100.00;100048.81;5054768;28;20021;-71
2022/01/05 02:42:44;;;;;;;25.55;4.70;;;;;;;0.07;100.00;100040.75;5054606;28;20151;-71
2022/01/05 02:45:10;;;;;;;22.00;4.30;;;;;;;0.05;100.00;100058.03;5054580;28;20075;-71
2022/01/05 02:47:37;;;;;;;22.85;4.82;;;;;;;0.06;100.00;100047.69;5054715;28;20033;-71
2022/01/05 02:50:04;;;;;;;23.73;5.10;;;;;;;-0.02;100.00;100050.00;5054513;28;20027;-71
2022/01/05 02:52:30;;;;;;;23.20;5.03;;;;;;;-0.04;100.00;100051.66;5054356;28;20033;-71
2022/01/05 02:54:55;;;;;;;22.35;4.80;;;;;;;-0.06;100.00;100053.34;5054617;28;20044;-71
2022/01/05 02:57:21;;;;;;;21.45;4.35;;;;;;;-0.10;100.00;100056.66;5054368;28;20120;-71
2022/01/05 02:59:46;;;;;;;24.20;4.82;;;;;;;-0.14;100.00;100065.16;5054589;28;20056;-71
2022/01/05 03:02:11;;;;;;;26.30;4.97;;;;;;;-0.15;100.00;100055.59;5054445;28;20414;-73
2022/01/05 03:04:37;;;;;;;23.15;4.75;;;;;;;-0.13;100.00;100077.34;5052605;28;20061;-71
2022/01/05 03:07:02;;;;;;;22.65;4.90;;;;;;;-0.07;100.00;100072.34;5054185;28;20027;-71
2022/01/05 03:09:27;;;;;;;24.65;4.93;;;;;;;-0.05;100.00;100075.88;5053577;28;20108;-71
2022/01/05 03:11:53;;;;;;;22.23;4.80;;;;;;;-0.05;100.00;100075.00;5053967;28;20021;-71
2022/01/05 03:14:19;;;;;;;24.27;5.03;;;;;;;-0.07;100.00;100082.75;5054215;28;20029;-72
2022/01/05 03:16:45;;;;;;;24.75;4.90;;;;;;;-0.09;100.00;100081.78;5053889;28;20537;-71
2022/01/05 03:19:10;;;;;;;24.52;5.00;;;;;;;-0.14;100.00;100082.50;5054148;28;20028;-72
2022/01/05 03:21:36;;;;;;;22.67;4.85;;;;;;;-0.14;100.00;100096.34;5053815;28;20488;-71
2022/01/05 03:24:01;;;;;;;24.45;5.05;;;;;;;-0.11;100.00;100096.47;5053761;28;20063;-70
2022/01/05 03:26:26;;;;;;;23.92;4.75;;;;;;;-0.19;100.00;100098.78;5053771;28;20044;-71
2022/01/05 03:28:52;;;;;;;24.65;4.97;;;;;;;-0.23;100.00;100096.03;5053809;28;20040;-70
2022/01/05 03:31:17;;;;;;;24.95;4.70;;;;;;;-0.28;100.00;100097.56;5053841;28;20020;-70
2022/01/05 03:33:42;;;;;;;24.65;4.93;;;;;;;-0.30;100.00;100105.31;5053571;28;20418;-71
2022/01/05 03:36:08;;;;;;;22.75;4.78;;;;;;;-0.26;100.00;100101.09;5053911;28;20059;-71
2022/01/05 03:38:33;;;;;;;23.38;4.80;;;;;;;-0.28;100.00;100097.56;5053484;28;20083;-71
2022/01/05 03:40:59;;;;;;;22.80;4.70;;;;;;;-0.26;100.00;100103.69;5053507;28;20017;-71
2022/01/05 03:43:24;;;;;;;23.98;5.20;;;;;;;-0.26;100.00;100114.09;5053585;28;20376;-70
2022/01/05 03:45:50;;;;;;;22.35;4.55;;;;;;;-0.23;100.00;100111.63;5053386;28;20064;-70
2022/01/05 03:48:18;;;;;;;25.25;4.88;;;;;;;-0.23;100.00;100107.31;5053642;28;20025;-71
2022/01/05 03:50:44;;;;;;;25.35;4.80;;;;;;;-0.21;100.00;100112.56;5053484;28;20376;-71
2022/01/05 03:53:10;;;;;;;24.10;4.60;;;;;;;-0.11;100.00;100117.25;5053248;28;20033;-71
2022/01/05 03:55:37;;;;;;;24.90;5.13;;;;;;;0.02;100.00;100112.50;5053720;28;20142;-71
2022/01/05 03:58:03;;;;;;;22.70;4.63;;;;;;;0.12;100.00;100112.00;5053170;28;20084;-71
2022/01/05 04:00:30;;;;;;;24.95;4.65;;;;;;;0.21;100.00;100112.28;5053252;28;20029;-71
2022/01/05 04:02:59;;;;;;;26.17;5.03;;;;;;;0.30;100.00;100119.53;5049742;28;20029;-71
2022/01/05 04:05:25;;;;;;;24.95;4.43;;;;;;;0.38;100.00;100119.78;5049278;28;20025;-70
2022/01/05 04:07:50;;;;;;;22.48;4.50;;;;;;;0.43;100.00;100118.25;5053005;28;20036;-70
2022/01/05 04:10:17;;;;;;;24.83;4.50;;;;;;;0.44;100.00;100120.00;5053414;28;20460;-70
2022/01/05 04:12:43;;;;;;;23.73;4.53;;;;;;;0.42;100.00;100114.72;5051884;28;20163;-71
2022/01/05 04:15:09;;;;;;;23.55;4.90;;;;;;;0.39;100.00;100116.34;5053121;28;20143;-71
2022/01/05 04:17:35;;;;;;;25.88;4.85;;;;;;;0.31;100.00;100118.72;5052965;28;20103;-71
2022/01/05 04:20:01;;;;;;;25.58;4.50;;;;;;;0.32;100.00;100116.16;5052954;28;20146;-73
2022/01/05 04:22:26;;;;;;;23.40;4.63;;;;;;;0.29;100.00;100121.25;5052425;28;20139;-73
2022/01/05 04:24:52;;;;;;;24.20;4.28;;;;;;;0.28;100.00;100121.22;5051660;28;20033;-73
2022/01/05 04:27:17;;;;;;;26.13;5.35;;;;;;;0.20;100.00;100126.13;5052760;28;20490;-72
2022/01/05 04:29:43;;;;;;;25.85;5.13;;;;;;;0.14;100.00;100126.78;5052608;28;20917;-73
2022/01/05 04:32:09;;;;;;;24.10;4.88;;;;;;;0.19;100.00;100132.19;5052776;28;20033;-73
2022/01/05 04:34:34;;;;;;;24.95;5.00;;;;;;;0.16;100.00;100137.25;5052663;28;20114;-72
2022/01/05 04:36:59;;;;;;;23.92;4.53;;;;;;;0.14;100.00;100128.50;5051252;28;20131;-72
2022/01/05 04:39:25;;;;;;;25.05;4.88;;;;;;;0.14;100.00;100133.72;5052838;28;20047;-72
2022/01/05 04:41:50;;;;;;;24.15;4.85;;;;;;;0.17;100.00;100141.63;5052780;28;20032;-72
2022/01/05 04:44:16;;;;;;;26.17;4.80;;;;;;;0.13;100.00;100152.72;5052323;28;20062;-73
2022/01/05 04:46:41;;;;;;;24.77;4.90;;;;;;;0.17;100.00;100149.41;5051393;28;20044;-72
2022/01/05 04:49:06;;;;;;;26.98;4.78;;;;;;;0.21;100.00;100146.09;5052723;28;20058;-73
2022/01/05 04:51:32;;;;;;;25.85;5.05;;;;;;;0.32;100.00;100157.75;5052568;28;20499;-70
2022/01/05 04:53:57;;;;;;;25.98;5.32;;;;;;;0.43;100.00;100152.03;5051338;28;20064;-71
2022/01/05 04:56:22;;;;;;;26.05;4.60;;;;;;;0.48;100.00;100150.47;5051184;28;20483;-71
2022/01/05 04:58:48;;;;;;;26.20;4.72;;;;;;;0.57;100.00;100147.28;5052753;28;20032;-71
2022/01/05 05:01:14;;;;;;;27.98;5.10;;;;;;;0.67;100.00;100152.88;5052541;28;20388;-71
2022/01/05 05:03:39;;;;;;;24.65;4.95;;;;;;;0.70;100.00;100146.91;5052617;28;20033;-70
2022/01/05 05:06:05;;;;;;;26.58;5.10;;;;;;;0.77;100.00;100158.38;5052501;28;20025;-70
2022/01/05 05:08:30;;;;;;;25.55;4.93;;;;;;;0.80;100.00;100153.25;5052454;28;20100;-71
2022/01/05 05:10:56;;;;;;;27.85;4.90;;;;;;;0.87;100.00;100160.44;5052297;28;20463;-71
2022/01/05 05:13:21;;;;;;;26.35;5.00;;;;;;;0.97;100.00;100159.91;5052392;28;20047;-71
2022/01/05 05:15:46;;;;;;;27.10;5.15;;;;;;;0.99;100.00;100166.06;5052116;28;20021;-70
2022/01/05 05:18:12;;;;;;;26.33;4.68;;;;;;;1.08;100.00;100165.47;5052000;28;20025;-71
2022/01/05 05:20:37;;;;;;;27.63;5.13;;;;;;;1.12;100.00;100163.84;5052260;28;20067;-71
2022/01/05 05:23:03;;;;;;;23.73;4.57;;;;;;;1.14;100.00;100164.78;5050905;28;20095;-71
2022/01/05 05:25:29;;;;;;;27.92;5.20;;;;;;;1.13;100.00;100160.41;5047852;28;20087;-71
2022/01/05 05:27:54;;;;;;;25.67;5.13;;;;;;;1.10;100.00;100153.38;5048392;28;20348;-71
2022/01/05 05:30:19;;;;;;;26.00;5.15;;;;;;;1.07;100.00;100153.28;5052037;28;20475;-71
2022/01/05 05:32:45;;;;;;;25.88;4.70;;;;;;;1.06;100.00;100168.84;5052986;28;20087;-71
2022/01/05 05:35:10;;;;;;;24.25;5.00;;;;;;;1.02;100.00;100147.94;5055936;28;20028;-71
2022/01/05 05:37:36;;;;;;;27.42;5.05;;;;;;;1.07;100.00;100155.88;5054461;28;20166;-71
2022/01/05 05:40:03;;;;;;;24.38;5.35;;;;;;;1.04;100.00;100154.06;5054631;28;20064;-71
2022/01/05 05:42:28;;;;;;;27.60;5.70;;;;;;;1.04;100.00;100146.25;5055757;28;20071;-71
2022/01/05 05:44:54;;;;;;;28.83;5.30;;;;;;;1.00;100.00;100160.00;5055662;28;20052;-71
2022/01/05 05:47:19;;;;;;;26.08;5.40;;;;;;;0.98;100.00;100160.81;5055963;28;20530;-71
2022/01/05 05:49:45;;;;;;;27.05;5.50;;;;;;;0.99;100.00;100158.25;5055970;28;20521;-71
2022/01/05 05:52:12;;;;;;;23.52;5.30;;;;;;;0.97;100.00;100172.91;5050994;28;20376;-71
2022/01/05 05:54:38;;;;;;;24.75;5.20;;;;;;;0.97;100.00;100175.50;5052626;28;20545;-71
2022/01/05 05:57:03;;;;;;;25.27;5.38;;;;;;;0.94;100.00;100178.03;5055305;28;20025;-70
2022/01/05 05:59:29;;;;;;;26.98;5.43;;;;;;;0.92;100.00;100179.72;5055408;28;20111;-71
2022/01/05 06:01:54;;;;;;;27.13;5.78;;;;;;;0.89;100.00;100174.41;5055516;28;20029;-71
2022/01/05 06:04:20;;;;;;;26.40;5.35;;;;;;;0.87;100.00;100178.66;5055339;28;20039;-71
2022/01/05 06:06:45;;;;;;;26.58;5.28;;;;;;;0.89;100.00;100184.81;5055341;28;20036;-70
2022/01/05 06:09:10;;;;;;;24.05;5.18;;;;;;;0.97;100.00;100183.31;5055381;28;20427;-71
2022/01/05 06:11:36;;;;;;;26.13;5.72;;;;;;;0.96;100.00;100178.06;5055268;28;20029;-70
2022/01/05 06:14:01;;;;;;;28.08;5.93;;;;;;;0.94;100.00;100183.22;5055615;28;20147;-70
2022/01/05 06:16:26;;;;;;;27.90;5.55;;;;;;;0.93;100.00;100178.84;5055302;28;20148;-71
2022/01/05 06:18:52;;;;;;;26.52;5.97;;;;;;;0.93;100.00;100177.97;5050208;28;20039;-75
2022/01/05 06:21:17;;;;;;;25.10;5.47;;;;;;;0.89;100.00;100179.59;5052739;28;20067;-73
2022/01/05 06:23:42;;;;;;;29.15;5.97;;;;;;;0.85;100.00;100180.34;5053567;28;20116;-72
2022/01/05 06:26:08;;;;;;;27.48;6.05;;;;;;;0.88;100.00;100183.03;5053727;28;20079;-75
2022/01/05 06:28:33;;;;;;;25.73;5.97;;;;;;;0.89;100.00;100184.81;5053656;28;20672;-76
2022/01/05 06:30:58;;;;;;;27.80;6.30;;;;;;;0.88;100.00;100188.25;5051150;28;20503;-73
2022/01/05 06:33:24;;;;;;;27.65;5.80;;;;;;;0.89;100.00;100187.41;5052125;28;20541;-75
2022/01/05 06:35:49;;;;;;;25.30;5.88;;;;;;;0.90;100.00;100201.31;5053183;28;20116;-76
2022/01/05 06:38:14;;;;;;;26.15;5.70;;;;;;;0.91;100.00;100200.47;5053311;28;20025;-73
2022/01/05 06:40:40;;;;;;;26.13;5.78;;;;;;;0.95;100.00;100212.78;5052997;28;20036;-76
2022/01/05 06:43:05;;;;;;;27.55;6.00;;;;;;;0.97;100.00;100209.34;5047859;28;20028;-77
2022/01/05 06:45:31;;;;;;;27.45;6.50;;;;;;;1.03;100.00;100216.47;5048523;28;20124;-73
2022/01/05 06:47:58;;;;;;;27.23;5.97;;;;;;;1.05;100.00;100207.03;5053133;28;20024;-73
2022/01/05 06:50:24;;;;;;;25.80;5.90;;;;;;;1.11;100.00;100220.25;5052499;28;20021;-73
2022/01/05 06:52:50;;;;;;;27.00;5.95;;;;;;;1.11;100.00;100221.97;5052656;28;20037;-73
2022/01/05 06:55:16;;;;;;;26.33;6.30;;;;;;;1.10;100.00;100217.59;5052939;28;20074;-74
2022/01/05 06:57:41;;;;;;;26.60;6.00;;;;;;;1.12;100.00;100218.50;5052844;28;20032;-74
2022/01/05 07:00:09;;;;;;;29.50;6.28;;;;;;;1.10;100.00;100228.00;5052446;28;20033;-74
2022/01/05 07:02:34;;;;;;;28.98;6.00;;;;;;;1.10;100.00;100228.00;5049499;28;20021;-75
2022/01/05 07:04:59;;;;;;;26.80;5.90;;;;;;;1.13;100.00;100239.38;5052429;28;20029;-78
2022/01/05 07:07:25;;;;;;;27.55;6.05;;;;;;;1.13;100.00;100243.72;5053020;28;20111;-79
2022/01/05 07:09:50;;;;;;;26.00;6.22;;;;;;;1.09;100.00;100260.94;5051945;28;20048;-76
2022/01/05 07:12:16;;;;;;;27.40;6.20;;;;;;;1.12;100.00;100245.44;5052135;28;20471;-75
2022/01/05 07:14:41;;;;;;;27.67;6.47;;;;;;;1.06;100.00;100245.22;5052774;28;20021;-75
2022/01/05 07:17:07;;;;;;;27.50;6.40;;;;;;;1.06;100.00;100242.63;5052940;28;20410;-76
2022/01/05 07:19:32;;;;;;;26.63;6.38;;;;;;;1.06;100.00;100249.56;5052585;28;20482;-79
2022/01/05 07:21:57;;;;;;;29.10;6.57;;;;;;;1.12;100.00;100249.75;5052262;28;20041;-79
2022/01/05 07:24:23;;;;;;;27.95;6.65;;;;;;;1.18;100.00;100248.25;5052727;28;20060;-76
2022/01/05 07:26:48;;;;;;;26.63;6.68;;;;;;;1.17;100.00;100253.41;5051888;28;21087;-75
2022/01/05 07:29:15;;;;;;;26.52;6.00;;;;;;;1.23;100.00;100258.81;5052127;28;20466;-75
2022/01/05 07:31:41;;;;;;;26.48;6.40;;;;;;;1.26;100.00;100265.84;5052094;28;20035;-73
2022/01/05 07:34:07;;;;;;;25.38;6.13;;;;;;;1.22;100.00;100262.22;5051654;28;20143;-73
2022/01/05 07:36:33;;;;;;;26.40;6.05;;;;;;;1.28;100.00;100267.66;5052110;28;20047;-73
2022/01/05 07:38:59;;;;;;;27.02;6.60;;;;;;;1.29;100.00;100271.16;5052279;28;20518;-73
2022/01/05 07:41:25;;;;;;;28.60;6.53;;;;;;;1.38;100.00;100271.44;5051917;28;20523;-72
2022/01/05 07:43:51;;;;;;;27.73;6.72;;;;;;;1.36;100.00;100271.38;5052248;28;20023;-74
2022/01/05 07:46:17;;;;;;;28.52;6.20;;;;;;;1.46;100.00;100279.53;5051577;28;20024;-73
2022/01/05 07:48:42;;;;;;;27.27;6.35;;;;;;;1.53;100.00;100278.84;5052031;28;20025;-76
2022/01/05 07:51:08;;;;;;;28.08;5.97;;;;;;;1.58;100.00;100285.09;5051839;28;20028;-73
2022/01/05 07:53:33;;;;;;;24.15;5.75;;;;;;;1.63;100.00;100296.56;5052259;28;20036;-72
2022/01/05 07:55:58;;;;;;;29.73;6.35;;;;;;;1.65;100.00;100289.69;5049715;28;20043;-73
2022/01/05 07:58:24;;;;;;;26.27;6.13;;;;;;;1.72;100.00;100298.59;5051604;28;20025;-73
2022/01/05 08:00:50;;;;;;;25.90;5.82;;;;;;;1.78;100.00;100295.25;5051729;28;20033;-73
2022/01/05 08:03:15;;;;;;;28.48;6.32;;;;;;;1.85;100.00;100303.34;5051819;28;20531;-75
2022/01/05 08:05:41;;;;;;;25.80;5.63;;;;;;;1.95;100.00;100307.09;5051746;28;20044;-74
2022/01/05 08:08:06;;;;;;;25.27;5.93;;;;;;;2.04;100.00;100310.00;5051639;28;20096;-72
2022/01/05 08:10:31;;;;;;;25.33;5.82;;;;;;;2.16;100.00;100316.44;5051116;28;20113;-74
2022/01/05 08:12:57;;;;;;;26.58;6.05;;;;;;;2.21;100.00;100317.44;5051795;28;20021;-78
2022/01/05 08:15:22;;;;;;;26.33;5.70;;;;;;;2.35;100.00;100321.34;5051323;28;20036;-75
2022/01/05 08:17:47;;;;;;;28.13;5.90;;;;;;;2.55;100.00;100316.72;5051360;28;20490;-75
2022/01/05 08:20:13;;;;;;;25.15;5.10;;;;;;;2.65;100.00;100323.06;5051416;28;20087;-74
2022/01/05 08:22:42;;;;;;;25.33;5.15;;;;;;;2.71;100.00;100318.03;5046796;28;20045;-75
2022/01/05 08:25:10;;;;;;;27.60;5.50;;;;;;;2.72;100.00;100317.19;5049395;28;20051;-75
2022/01/05 08:27:35;;;;;;;25.52;5.43;;;;;;;2.72;100.00;100318.91;5051774;28;20095;-75
2022/01/05 08:30:04;;;;;;;24.98;5.32;;;;;;;2.77;100.00;100323.41;5051093;28;20032;-72
2022/01/05 08:32:31;;;;;;;24.52;5.43;;;;;;;2.79;100.00;100323.44;5051332;28;20111;-72
2022/01/05 08:34:56;;;;;;;24.08;4.93;;;;;;;2.81;100.00;100336.53;5050687;28;20060;-72
2022/01/05 08:37:22;;;;;;;25.92;5.30;;;;;;;2.82;100.00;100320.03;5051343;28;20065;-72
2022/01/05 08:39:50;;;;;;;24.63;5.13;;;;;;;2.85;100.00;100325.34;5047948;28;20033;-72
2022/01/05 08:42:15;;;;;;;32.05;6.22;;;;;;;2.95;100.00;100335.19;5049871;28;20087;-72
2022/01/05 08:44:41;;;;;;;24.90;5.20;;;;;;;3.06;100.00;100319.81;5052551;28;20021;-72
2022/01/05 08:47:07;;;;;;;25.48;5.05;;;;;;;3.08;100.00;100332.06;5051009;28;20040;-71
2022/01/05 08:49:33;;;;;;;25.02;5.03;;;;;;;3.08;100.00;100323.34;5052667;28;20025;-72
2022/01/05 08:51:59;;;;;;;25.35;5.15;;;;;;;3.06;100.00;100325.03;5048315;28;20079;-71
2022/01/05 08:54:25;;;;;;;26.17;5.60;;;;;;;3.03;100.00;100331.06;5051223;28;20110;-72
2022/01/05 08:56:50;;;;;;;26.73;5.55;;;;;;;2.95;100.00;100332.59;5052346;28;20031;-71
2022/01/05 08:59:16;;;;;;;23.08;5.05;;;;;;;2.92;100.00;100328.16;5052271;28;20430;-71
2022/01/05 09:01:43;;;;;;;25.05;5.40;;;;;;;2.93;100.00;100337.75;5052669;28;20439;-71
2022/01/05 09:04:08;;;;;;;26.33;5.47;;;;;;;3.04;100.00;100338.03;5052371;28;20027;-70
2022/01/05 09:06:34;;;;;;;24.65;5.20;;;;;;;3.26;100.00;100352.59;5052365;28;20025;-71
2022/01/05 09:08:59;;;;;;;25.25;5.45;;;;;;;3.42;100.00;100337.28;5055449;28;20031;-70
2022/01/05 09:11:27;;;;;;;24.63;5.55;;;;;;;3.50;100.00;100340.97;5056414;28;20032;-71
2022/01/05 09:13:52;;;;;;;25.65;5.13;;;;;;;3.52;100.00;100341.88;5056564;28;20031;-71
2022/01/05 09:16:18;;;;;;;25.23;5.82;;;;;;;3.53;100.00;100356.75;5052818;28;20534;-71
2022/01/05 09:18:44;;;;;;;23.90;4.60;;;;;;;3.52;100.00;100348.84;5051379;28;20116;-71
2022/01/05 09:21:09;;;;;;;25.17;5.10;;;;;;;3.39;100.00;100347.66;5055957;28;20094;-71
2022/01/05 09:23:35;;;;;;;25.80;5.05;;;;;;;3.33;100.00;100347.50;5056483;28;20029;-71
2022/01/05 09:26:00;;;;;;;26.95;5.97;;;;;;;3.39;100.00;100352.88;5056280;28;20475;-71
2022/01/05 09:28:26;;;;;;;26.65;5.65;;;;;;;3.47;100.00;100356.59;5056328;28;20021;-72
2022/01/05 09:30:52;;;;;;;25.27;5.30;;;;;;;3.59;100.00;100369.06;5056150;28;20083;-71
2022/01/05 09:33:17;;;;;;;25.42;5.22;;;;;;;3.63;100.00;100368.31;5055974;28;20021;-70
2022/01/05 09:35:44;;;;;;;25.85;5.55;;;;;;;3.47;100.00;100373.16;5055881;28;20032;-72
2022/01/05 09:38:22;;;;;;;25.27;5.32;;;;;;;3.33;100.00;100384.09;5055891;28;20033;-71
2022/01/05 09:43:48;;;;;;;26.77;5.60;;;;;;;3.28;100.00;100386.59;5056110;28;20075;-71
2022/01/05 09:46:29;;;;;;;26.27;4.95;;;;;;;3.10;100.00;100397.41;5052747;28;20075;-71
2022/01/05 09:49:06;;;;;;;27.08;5.55;;;;;;;3.06;100.00;100399.06;5055793;28;20029;-71
2022/01/05 09:51:33;;;;;;;27.13;5.00;;;;;;;3.12;100.00;100399.22;5052802;28;20048;-71
2022/01/05 09:54:01;;;;;;;25.50;4.93;;;;;;;3.05;100.00;100399.91;5050623;28;20071;-71
2022/01/05 09:56:30;;;;;;;24.95;5.03;;;;;;;3.06;100.00;100396.44;5055894;28;20029;-71
2022/01/05 09:59:00;;;;;;;26.95;5.28;;;;;;;2.99;100.00;100404.94;5053666;28;20466;-71
2022/01/05 10:01:27;;;;;;;25.77;5.18;;;;;;;3.00;100.00;100406.72;5045706;28;20080;-75
2022/01/05 10:03:52;;;;;;;26.00;5.20;;;;;;;3.03;100.00;100400.69;5054729;28;20025;-75
2022/01/05 10:06:18;;;;;;;27.88;5.57;;;;;;;3.07;100.00;100400.84;5055306;28;20029;-75
2022/01/05 10:08:44;;;;;;;26.70;4.85;;;;;;;3.14;100.00;100422.78;5055243;28;20020;-74
2022/01/05 10:11:10;;;;;;;28.45;5.03;;;;;;;3.20;100.00;100401.16;5055417;28;20108;-76
2022/01/05 10:13:35;;;;;;;27.83;5.40;;;;;;;3.22;100.00;100397.75;5052766;28;20104;-75
2022/01/05 10:16:01;;;;;;;26.35;5.07;;;;;;;3.33;100.00;100413.69;5055392;28;20063;-75
2022/01/05 10:18:39;;;;;;;25.08;4.22;;;;;;;3.34;100.00;100425.94;5054307;28;20430;-75
2022/01/05 10:21:06;;;;;;;26.88;4.97;;;;;;;3.38;100.00;100409.50;5054515;28;20120;-75
2022/01/05 10:23:41;;;;;;;26.77;5.20;;;;;;;3.48;100.00;100416.75;5055036;28;20025;-75
2022/01/05 10:26:26;;;;;;;27.60;4.90;;;;;;;3.86;100.00;100429.03;5055227;28;20056;-76
2022/01/05 10:28:55;;;;;;;25.05;4.70;;;;;;;4.18;100.00;100426.31;5051473;28;20102;-76
2022/01/05 10:31:24;;;;;;;26.48;5.03;;;;;;;4.34;100.00;100433.66;5051407;28;20040;-76
2022/01/05 10:33:50;;;;;;;25.52;4.95;;;;;;;4.46;100.00;100419.09;5049546;28;20399;-76
2022/01/05 10:36:15;;;;;;;24.33;4.57;;;;;;;4.57;100.00;100435.03;5054706;28;20028;-76
2022/01/05 10:38:52;;;;;;;21.05;4.03;;;;;;;4.67;100.00;100413.44;5054696;28;20040;-76
2022/01/05 10:41:20;;;;;;;24.02;4.35;;;;;;;4.69;100.00;100415.25;5054563;28;20053;-75
2022/01/05 10:44:07;;;;;;;23.50;4.60;;;;;;;4.89;100.00;100448.81;5054571;28;20036;-71
2022/01/05 10:46:37;;;;;;;27.27;4.95;;;;;;;4.88;100.00;100424.38;5052521;28;20025;-71
2022/01/05 10:49:04;;;;;;;23.58;4.13;;;;;;;5.15;100.00;100424.91;5054539;28;20055;-72
2022/01/05 10:51:31;;;;;;;24.65;4.60;;;;;;;5.32;98.89;100438.34;5054770;28;20074;-71
2022/01/05 10:54:21;;;;;;;24.58;4.38;;;;;;;5.94;97.23;100448.19;5054293;28;20024;-71
2022/01/05 10:56:47;;;;;;;24.83;4.28;;;;;;;6.09;92.25;100450.22;5050001;28;20033;-70
2022/01/05 10:59:14;;;;;;;25.20;4.97;;;;;;;6.54;90.36;100467.56;5050289;28;20047;-71
2022/01/05 11:01:41;;;;;;;25.90;4.68;;;;;;;6.84;87.82;100486.34;5050049;28;20452;-71
2022/01/05 11:04:21;;;;;;;24.52;4.40;;;;;;;6.50;88.49;100457.84;5052579;28;20486;-70
2022/01/05 11:06:57;;;;;;;24.20;4.50;;;;;;;6.00;89.13;100448.34;5052826;28;20037;-70
2022/01/05 11:09:22;;;;;;;25.92;5.10;;;;;;;5.81;90.54;100464.56;5050838;28;20021;-70
2022/01/05 11:11:49;;;;;;;20.70;4.05;;;;;;;5.57;90.02;100493.00;5052939;28;20560;-70
2022/01/05 11:14:29;;;;;;;25.83;4.60;;;;;;;5.53;92.92;100482.41;5052281;28;20029;-73
2022/01/05 11:16:56;;;;;;;24.95;5.18;;;;;;;5.33;93.31;100514.38;5050755;28;20025;-71
2022/01/05 11:19:22;;;;;;;24.30;4.38;;;;;;;5.30;94.86;100474.09;5051923;28;20029;-71